createdAt,value
2018-04-17T00:01:12.645Z,16.40
2018-04-17T00:03:40.199Z,16.42
2018-04-17T00:06:07.771Z,16.44
2018-04-17T00:08:35.342Z,16.45
2018-04-17T00:11:03.017Z,16.43
2018-04-17T00:13:30.578Z,16.37
2018-04-17T00:15:58.132Z,16.32
2018-04-17T00:18:25.719Z,16.28
2018-04-17T00:20:53.293Z,16.23
2018-04-17T00:23:20.847Z,16.22
2018-04-17T00:25:48.463Z,16.13
2018-04-17T00:28:16.076Z,16.02
2018-04-17T00:30:43.656Z,15.93
2018-04-17T00:33:11.672Z,15.89
2018-04-17T00:35:39.241Z,15.96
2018-04-17T00:38:06.806Z,16.05
2018-04-17T00:40:34.381Z,16.09
2018-04-17T00:43:02.006Z,16.15
2018-04-17T00:45:29.690Z,16.19
2018-04-17T00:47:57.249Z,16.18
2018-04-17T00:50:24.865Z,16.15
2018-04-17T00:52:52.541Z,16.13
2018-04-17T00:55:20.108Z,16.13
2018-04-17T00:57:47.677Z,16.15
2018-04-17T01:00:15.260Z,16.08
2018-04-17T01:02:42.949Z,16.08
2018-04-17T01:05:10.509Z,16.11
2018-04-17T01:07:38.129Z,16.10
2018-04-17T01:10:05.711Z,16.12
2018-04-17T01:12:33.333Z,16.13
2018-04-17T01:15:00.897Z,16.19
2018-04-17T01:17:28.471Z,16.23
2018-04-17T01:19:56.088Z,16.25
2018-04-17T01:22:23.705Z,16.27
2018-04-17T01:24:51.263Z,16.29
2018-04-17T01:27:18.887Z,16.38
2018-04-17T01:29:46.514Z,16.39
2018-04-17T01:32:14.090Z,16.34
2018-04-17T01:34:41.713Z,16.35
2018-04-17T01:37:09.385Z,16.38
2018-04-17T01:39:36.947Z,16.39
2018-04-17T01:42:04.507Z,16.41
2018-04-17T01:44:32.085Z,16.44
2018-04-17T01:46:59.668Z,16.51
2018-04-17T01:49:27.302Z,16.50
2018-04-17T01:51:54.856Z,16.54
2018-04-17T01:54:22.474Z,16.58
2018-04-17T01:56:50.108Z,16.55
2018-04-17T01:59:17.742Z,16.53
2018-04-17T02:01:45.314Z,16.38
2018-04-17T02:04:12.880Z,16.27
2018-04-17T02:06:40.454Z,16.17
2018-04-17T02:09:08.014Z,16.06
2018-04-17T02:11:35.681Z,15.95
2018-04-17T02:14:03.218Z,15.82
2018-04-17T02:16:30.837Z,15.67
2018-04-17T02:18:58.474Z,15.59
2018-04-17T02:21:26.038Z,15.41
2018-04-17T02:23:53.611Z,15.29
2018-04-17T02:26:21.173Z,15.17
2018-04-17T02:28:48.797Z,15.00
2018-04-17T02:31:16.356Z,14.93
2018-04-17T02:33:43.908Z,14.84
2018-04-17T02:36:11.476Z,14.76
2018-04-17T02:38:39.057Z,14.73
2018-04-17T02:41:06.623Z,14.74
2018-04-17T02:43:34.184Z,14.76
2018-04-17T02:46:01.806Z,14.74
2018-04-17T02:48:29.425Z,14.70
2018-04-17T02:50:57.009Z,14.69
2018-04-17T02:53:24.637Z,14.74
2018-04-17T02:55:52.224Z,14.76
2018-04-17T02:58:19.800Z,14.78
2018-04-17T03:00:47.365Z,14.81
2018-04-17T03:03:14.941Z,14.80
2018-04-17T03:05:42.502Z,14.79
2018-04-17T03:08:10.150Z,14.79
2018-04-17T03:10:37.769Z,14.77
2018-04-17T03:13:05.333Z,14.77
2018-04-17T03:15:32.908Z,14.76
2018-04-17T03:18:00.480Z,14.70
2018-04-17T03:20:28.117Z,14.67
2018-04-17T03:22:55.689Z,14.67
2018-04-17T03:25:23.365Z,14.64
2018-04-17T03:27:50.989Z,14.65
2018-04-17T03:30:19.406Z,14.64
2018-04-17T03:32:47.076Z,14.70
2018-04-17T03:35:14.711Z,14.76
2018-04-17T03:37:42.391Z,14.76
2018-04-17T03:40:09.956Z,14.83
2018-04-17T03:42:37.652Z,14.91
2018-04-17T03:45:05.266Z,14.89
2018-04-17T03:47:32.833Z,14.89
2018-04-17T03:50:00.461Z,14.79
2018-04-17T03:52:28.042Z,14.68
2018-04-17T03:54:55.625Z,14.53
2018-04-17T03:57:23.189Z,14.47
2018-04-17T03:59:50.811Z,14.47
2018-04-17T04:02:18.376Z,14.53
2018-04-17T04:04:46.017Z,14.59
2018-04-17T04:07:13.655Z,14.64
2018-04-17T04:09:41.216Z,14.65
2018-04-17T04:12:08.864Z,14.58
2018-04-17T04:14:36.434Z,14.59
2018-04-17T04:20:18.225Z,14.77
2018-04-17T04:22:57.780Z,14.79
2018-04-17T04:25:37.114Z,14.83
2018-04-17T04:28:04.741Z,14.85
2018-04-17T04:30:32.354Z,14.88
2018-04-17T04:32:59.976Z,14.94
2018-04-17T04:35:27.540Z,15.04
2018-04-17T04:37:55.165Z,15.10
2018-04-17T04:40:22.733Z,15.07
2018-04-17T04:42:50.306Z,15.11
2018-04-17T04:45:17.875Z,15.15
2018-04-17T04:47:45.436Z,15.17
2018-04-17T04:50:13.049Z,15.15
2018-04-17T04:52:40.613Z,15.12
2018-04-17T04:55:08.183Z,15.16
2018-04-17T04:57:35.787Z,15.16
2018-04-17T05:00:03.409Z,15.10
2018-04-17T05:02:31.049Z,15.10
2018-04-17T05:04:58.610Z,15.10
2018-04-17T05:07:26.225Z,15.08
2018-04-17T05:09:53.803Z,15.11
2018-04-17T05:12:21.361Z,15.07
2018-04-17T05:14:48.936Z,15.04
2018-04-17T05:17:16.505Z,15.03
2018-04-17T05:19:44.077Z,15.07
2018-04-17T05:22:11.641Z,15.01
2018-04-17T05:24:39.285Z,14.77
2018-04-17T05:27:06.845Z,14.58
2018-04-17T05:29:34.413Z,14.48
2018-04-17T05:32:01.989Z,14.36
2018-04-17T05:34:29.549Z,14.17
2018-04-17T05:36:57.119Z,14.10
2018-04-17T05:39:24.684Z,14.14
2018-04-17T05:41:52.289Z,14.19
2018-04-17T05:44:19.852Z,14.23
2018-04-17T05:46:47.420Z,14.28
2018-04-17T05:49:14.978Z,14.35
2018-04-17T05:51:42.616Z,14.39
2018-04-17T05:54:10.248Z,14.38
2018-04-17T05:56:37.881Z,14.42
2018-04-17T05:59:05.557Z,14.40
2018-04-17T06:01:33.159Z,14.43
2018-04-17T06:04:00.787Z,14.45
2018-04-17T06:06:28.456Z,14.45
2018-04-17T06:08:56.063Z,14.42
2018-04-17T06:11:23.761Z,14.46
2018-04-17T06:13:51.425Z,14.46
2018-04-17T06:16:18.987Z,14.50
2018-04-17T06:18:46.596Z,14.55
2018-04-17T06:21:14.173Z,14.55
2018-04-17T06:23:41.747Z,14.65
2018-04-17T06:26:09.355Z,14.70
2018-04-17T06:28:36.969Z,14.63
2018-04-17T06:31:04.609Z,14.56
2018-04-17T06:33:32.241Z,14.54
2018-04-17T06:35:59.825Z,14.64
2018-04-17T06:38:27.475Z,14.66
2018-04-17T06:40:55.117Z,14.69
2018-04-17T06:43:22.688Z,14.76
2018-04-17T06:45:50.267Z,14.86
2018-04-17T06:48:17.896Z,14.95
2018-04-17T06:50:45.512Z,15.03
2018-04-17T06:53:13.103Z,15.11
2018-04-17T06:55:40.748Z,15.11
2018-04-17T06:58:08.471Z,15.15
2018-04-17T07:00:36.053Z,15.16
2018-04-17T07:03:03.617Z,15.05
2018-04-17T07:05:31.257Z,14.99
2018-04-17T07:07:58.901Z,15.02
2018-04-17T07:10:26.469Z,14.94
2018-04-17T07:12:54.099Z,15.03
2018-04-17T07:15:21.787Z,15.03
2018-04-17T07:17:49.352Z,14.94
2018-04-17T07:20:16.977Z,14.93
2018-04-17T07:22:44.568Z,15.07
2018-04-17T07:25:12.205Z,15.19
2018-04-17T07:27:39.821Z,15.23
2018-04-17T07:30:07.413Z,15.28
2018-04-17T07:32:35.040Z,15.41
2018-04-17T07:35:02.622Z,15.46
2018-04-17T07:37:30.257Z,15.46
2018-04-17T07:39:57.928Z,15.45
2018-04-17T07:42:25.494Z,15.38
2018-04-17T07:44:53.060Z,15.40
2018-04-17T07:47:31.456Z,15.22
2018-04-17T07:49:59.005Z,15.18
2018-04-17T07:52:26.689Z,15.11
2018-04-17T07:54:54.338Z,15.12
2018-04-17T07:57:21.964Z,15.10
2018-04-17T07:59:49.536Z,15.10
2018-04-17T08:02:17.104Z,15.06
2018-04-17T08:04:44.777Z,15.11
2018-04-17T08:07:12.401Z,15.23
2018-04-17T08:09:39.977Z,15.30
2018-04-17T08:12:07.565Z,15.41
2018-04-17T08:14:35.236Z,15.52
2018-04-17T08:17:02.854Z,15.61
2018-04-17T08:19:30.416Z,15.77
2018-04-17T08:21:57.989Z,15.94
2018-04-17T08:24:25.566Z,16.05
2018-04-17T08:26:53.137Z,16.28
2018-04-17T08:29:20.708Z,16.46
2018-04-17T08:31:48.331Z,16.94
2018-04-17T08:34:15.957Z,17.28
2018-04-17T08:36:43.571Z,17.71
2018-04-17T08:39:11.148Z,18.14
2018-04-17T08:41:38.715Z,18.43
2018-04-17T08:44:06.354Z,18.88
2018-04-17T08:46:33.928Z,19.18
2018-04-17T08:49:01.634Z,19.41
2018-04-17T08:51:29.215Z,19.60
2018-04-17T08:53:56.840Z,19.87
2018-04-17T08:56:24.420Z,19.53
2018-04-17T08:58:52.067Z,19.54
2018-04-17T09:01:19.643Z,19.88
2018-04-17T09:03:47.216Z,20.13
2018-04-17T09:06:14.913Z,20.07
2018-04-17T09:08:42.572Z,19.83
2018-04-17T09:11:10.186Z,19.84
2018-04-17T09:13:37.761Z,19.98
2018-04-17T09:16:05.325Z,19.97
2018-04-17T09:18:32.906Z,19.71
2018-04-17T09:21:00.580Z,19.78
2018-04-17T09:23:28.313Z,19.90
2018-04-17T09:25:55.904Z,19.89
2018-04-17T09:28:23.506Z,19.96
2018-04-17T09:30:51.134Z,19.84
2018-04-17T09:33:18.761Z,20.02
2018-04-17T09:35:46.393Z,20.14
2018-04-17T09:38:13.978Z,20.21
2018-04-17T09:40:41.601Z,20.25
2018-04-17T09:43:09.169Z,20.35
2018-04-17T09:45:36.731Z,20.66
2018-04-17T09:48:04.361Z,20.69
2018-04-17T09:50:31.939Z,20.84
2018-04-17T09:52:59.521Z,20.77
2018-04-17T09:55:27.098Z,20.81
2018-04-17T09:57:54.719Z,20.97
2018-04-17T10:00:22.322Z,21.07
2018-04-17T10:02:49.896Z,21.35
2018-04-17T10:05:17.455Z,21.60
2018-04-17T10:07:45.086Z,21.79
2018-04-17T10:10:12.656Z,21.92
2018-04-17T10:12:40.227Z,22.04
2018-04-17T10:15:07.848Z,22.36
2018-04-17T10:17:35.507Z,22.48
2018-04-17T10:20:03.137Z,22.77
2018-04-17T10:22:30.719Z,23.16
2018-04-17T10:24:58.289Z,23.35
2018-04-17T10:27:25.889Z,23.25
2018-04-17T10:29:53.537Z,23.61
2018-04-17T10:32:21.199Z,23.87
2018-04-17T10:34:48.769Z,23.50
2018-04-17T10:37:16.357Z,23.54
2018-04-17T10:39:43.988Z,23.76
2018-04-17T10:42:11.599Z,23.78
2018-04-17T10:44:39.273Z,23.55
2018-04-17T10:47:06.844Z,23.73
2018-04-17T10:49:34.481Z,23.64
2018-04-17T10:52:02.072Z,23.46
2018-04-17T10:54:29.648Z,23.59
2018-04-17T10:56:57.222Z,23.75
2018-04-17T10:59:24.792Z,23.74
2018-04-17T11:01:52.383Z,23.82
2018-04-17T11:04:19.955Z,23.42
2018-04-17T11:06:47.578Z,23.50
2018-04-17T11:09:15.162Z,23.83
2018-04-17T11:11:42.742Z,24.66
2018-04-17T11:14:10.383Z,24.72
2018-04-17T11:16:38.776Z,25.61
2018-04-17T11:19:06.379Z,26.28
2018-04-17T11:21:33.962Z,27.16
2018-04-17T11:24:01.590Z,27.17
2018-04-17T11:26:29.214Z,26.67
2018-04-17T11:28:56.850Z,26.41
2018-04-17T11:31:24.489Z,25.83
2018-04-17T11:33:52.066Z,26.30
2018-04-17T11:36:19.646Z,26.27
2018-04-17T11:38:47.283Z,26.27
2018-04-17T11:41:14.910Z,25.85
2018-04-17T11:43:42.475Z,25.81
2018-04-17T11:46:10.070Z,25.83
2018-04-17T11:48:37.752Z,25.17
2018-04-17T11:51:05.332Z,25.38
2018-04-17T11:53:32.961Z,25.36
2018-04-17T11:56:00.537Z,24.63
2018-04-17T11:58:28.156Z,24.30
2018-04-17T12:00:55.721Z,24.19
2018-04-17T12:03:23.329Z,24.22
2018-04-17T12:05:50.933Z,24.19
2018-04-17T12:08:18.565Z,24.21
2018-04-17T12:10:46.194Z,23.87
2018-04-17T12:13:13.808Z,24.17
2018-04-17T12:15:41.431Z,24.43
2018-04-17T12:18:09.020Z,24.40
2018-04-17T12:20:36.593Z,23.93
2018-04-17T12:23:04.192Z,23.56
2018-04-17T12:25:31.830Z,23.77
2018-04-17T12:27:59.415Z,23.93
2018-04-17T12:30:27.050Z,24.04
2018-04-17T12:32:54.673Z,24.12
2018-04-17T12:35:22.236Z,24.39
2018-04-17T12:37:49.804Z,24.48
2018-04-17T12:40:17.405Z,24.30
2018-04-17T12:42:44.988Z,24.60
2018-04-17T12:45:12.575Z,24.45
2018-04-17T12:47:40.149Z,24.11
2018-04-17T12:50:07.768Z,23.93
2018-04-17T12:52:35.393Z,23.85
2018-04-17T12:55:02.965Z,23.84
2018-04-17T12:57:30.553Z,23.84
2018-04-17T12:59:58.120Z,23.92
2018-04-17T13:02:25.720Z,23.82
2018-04-17T13:04:53.280Z,23.44
2018-04-17T13:07:20.886Z,23.46
2018-04-17T13:09:48.443Z,23.43
2018-04-17T13:12:16.091Z,23.32
2018-04-17T13:14:43.735Z,23.19
2018-04-17T13:17:11.361Z,23.11
2018-04-17T13:19:38.991Z,23.25
2018-04-17T13:22:06.625Z,23.27
2018-04-17T13:24:34.257Z,23.31
2018-04-17T13:27:01.830Z,23.49
2018-04-17T13:29:29.523Z,23.55
2018-04-17T13:31:57.089Z,23.66
2018-04-17T13:34:24.650Z,23.52
2018-04-17T13:36:52.239Z,23.66
2018-04-17T13:39:19.823Z,23.58
2018-04-17T13:41:47.433Z,23.63
2018-04-17T13:44:15.018Z,23.23
2018-04-17T13:46:42.704Z,23.50
2018-04-17T13:49:10.275Z,23.52
2018-04-17T13:51:37.826Z,23.54
2018-04-17T13:54:05.402Z,23.16
2018-04-17T13:56:33.030Z,22.97
2018-04-17T13:59:00.609Z,23.09
2018-04-17T14:01:28.230Z,22.88
2018-04-17T14:03:55.852Z,22.60
2018-04-17T14:06:23.481Z,22.72
2018-04-17T14:08:51.120Z,22.68
2018-04-17T14:11:18.754Z,22.58
2018-04-17T14:13:46.384Z,22.33
2018-04-17T14:16:14.001Z,22.27
2018-04-17T14:18:41.572Z,21.92
2018-04-17T14:21:09.212Z,21.90
2018-04-17T14:23:36.784Z,21.87
2018-04-17T14:26:04.349Z,21.76
2018-04-17T14:28:31.929Z,21.58
2018-04-17T14:30:59.502Z,21.45
2018-04-17T14:33:27.099Z,21.19
2018-04-17T14:35:54.739Z,21.07
2018-04-17T14:38:22.365Z,20.75
2018-04-17T14:40:50.038Z,20.50
2018-04-17T14:43:17.664Z,20.19
2018-04-17T14:45:45.240Z,20.04
2018-04-17T14:48:12.835Z,19.83
2018-04-17T14:50:40.425Z,19.84
2018-04-17T14:53:07.972Z,19.89
2018-04-17T14:55:35.662Z,19.92
2018-04-17T14:58:03.291Z,20.01
2018-04-17T15:00:30.848Z,20.05
2018-04-17T15:02:58.425Z,19.95
2018-04-17T15:05:26.043Z,19.96
2018-04-17T15:07:53.729Z,19.94
2018-04-17T15:10:21.300Z,19.92
2018-04-17T15:12:48.896Z,19.96
2018-04-17T15:15:16.508Z,19.96
2018-04-17T15:17:44.061Z,20.00
2018-04-17T15:20:11.652Z,20.04
2018-04-17T15:22:39.218Z,20.02
2018-04-17T15:25:06.802Z,19.92
2018-04-17T15:27:34.357Z,19.81
2018-04-17T15:30:01.979Z,19.85
2018-04-17T15:32:29.641Z,19.91
2018-04-17T15:34:57.200Z,19.94
2018-04-17T15:37:24.769Z,19.88
2018-04-17T15:39:52.344Z,19.85
2018-04-17T15:42:20.025Z,19.89
2018-04-17T15:44:47.611Z,19.74
2018-04-17T15:47:15.177Z,19.69
2018-04-17T15:49:42.817Z,19.65
2018-04-17T15:52:10.385Z,19.57
2018-04-17T15:54:38.026Z,19.46
2018-04-17T15:57:05.692Z,19.37
2018-04-17T15:59:33.365Z,19.25
2018-04-17T16:02:00.944Z,19.27
2018-04-17T16:04:28.508Z,19.21
2018-04-17T16:06:56.119Z,19.03
2018-04-17T16:09:23.759Z,18.97
2018-04-17T16:11:51.387Z,18.90
2018-04-17T16:14:19.837Z,18.85
2018-04-17T16:16:47.443Z,18.78
2018-04-17T16:19:15.102Z,18.74
2018-04-17T16:21:42.661Z,18.68
2018-04-17T16:24:10.237Z,18.67
2018-04-17T16:26:37.829Z,18.58
2018-04-17T16:29:05.473Z,18.48
2018-04-17T16:31:33.118Z,18.49
2018-04-17T16:34:00.689Z,18.42
2018-04-17T16:36:28.257Z,18.29
2018-04-17T16:38:55.892Z,18.04
2018-04-17T16:41:23.554Z,17.88
2018-04-17T16:43:51.162Z,17.61
2018-04-17T16:46:18.724Z,17.45
2018-04-17T16:48:46.343Z,17.34
2018-04-17T16:51:13.984Z,17.27
2018-04-17T16:53:41.622Z,17.17
2018-04-17T16:56:09.262Z,17.10
2018-04-17T16:58:36.824Z,17.08
2018-04-17T17:01:04.413Z,17.02
2018-04-17T17:03:32.016Z,17.02
2018-04-17T17:05:59.677Z,16.95
2018-04-17T17:08:27.263Z,16.91
2018-04-17T17:10:54.985Z,16.86
2018-04-17T17:13:22.618Z,16.81
2018-04-17T17:15:50.247Z,16.79
2018-04-17T17:18:17.881Z,16.83
2018-04-17T17:20:45.465Z,16.79
2018-04-17T17:23:13.188Z,16.71
2018-04-17T17:25:40.818Z,16.62
2018-04-17T17:28:08.450Z,16.57
2018-04-17T17:30:36.055Z,16.51
2018-04-17T17:33:03.752Z,16.42
2018-04-17T17:35:31.380Z,16.35
2018-04-17T17:37:58.968Z,16.33
2018-04-17T17:40:26.664Z,16.33
2018-04-17T17:42:54.295Z,16.34
2018-04-17T17:45:21.861Z,16.37
2018-04-17T17:47:49.497Z,16.39
2018-04-17T17:50:17.103Z,16.31
2018-04-17T17:52:44.787Z,16.27
2018-04-17T17:55:12.395Z,16.28
2018-04-17T17:57:40.072Z,16.25
2018-04-17T18:00:07.642Z,16.22
2018-04-17T18:02:35.286Z,16.23
2018-04-17T18:05:02.932Z,16.24
2018-04-17T18:07:30.542Z,16.29
2018-04-17T18:09:58.180Z,16.28
2018-04-17T18:12:25.757Z,16.32
2018-04-17T18:14:53.465Z,16.32
2018-04-17T18:17:21.049Z,16.26
2018-04-17T18:19:48.613Z,16.14
2018-04-17T18:22:16.196Z,16.07
2018-04-17T18:24:43.774Z,15.94
2018-04-17T18:27:11.393Z,15.80
2018-04-17T18:29:38.950Z,15.71
2018-04-17T18:32:06.602Z,15.67
2018-04-17T18:34:34.229Z,15.63
2018-04-17T18:37:01.796Z,15.55
2018-04-17T18:39:29.415Z,15.54
2018-04-17T18:41:56.990Z,15.49
2018-04-17T18:44:24.570Z,15.43
2018-04-17T18:46:52.177Z,15.38
2018-04-17T18:49:19.799Z,15.33
2018-04-17T18:51:47.380Z,15.27
2018-04-17T18:54:15.014Z,15.26
2018-04-17T18:56:42.573Z,15.24
2018-04-17T18:59:10.197Z,15.17
2018-04-17T19:01:37.896Z,15.15
2018-04-17T19:04:05.525Z,15.14
2018-04-17T19:06:33.152Z,15.09
2018-04-17T19:09:00.730Z,15.08
2018-04-17T19:11:28.293Z,15.05
2018-04-17T19:13:55.873Z,15.01
2018-04-17T19:16:23.455Z,15.01
2018-04-17T19:18:51.076Z,15.03
2018-04-17T19:21:18.718Z,14.99
2018-04-17T19:23:46.304Z,14.98
2018-04-17T19:26:13.942Z,14.97
2018-04-17T19:28:41.577Z,14.94
2018-04-17T19:31:09.295Z,14.92
2018-04-17T19:33:36.863Z,14.91
2018-04-17T19:36:04.535Z,14.92
2018-04-17T19:38:32.114Z,14.94
2018-04-17T19:40:59.683Z,14.93
2018-04-17T19:43:27.348Z,14.99
2018-04-17T19:45:54.961Z,14.99
2018-04-17T19:48:22.540Z,15.05
2018-04-17T19:50:50.195Z,15.06
2018-04-17T19:53:17.764Z,15.08
2018-04-17T19:55:45.471Z,15.10
2018-04-17T19:58:13.080Z,15.12
2018-04-17T20:00:40.763Z,15.11
2018-04-17T20:03:08.342Z,15.09
2018-04-17T20:05:35.908Z,15.07
2018-04-17T20:08:03.485Z,15.06
2018-04-17T20:10:31.056Z,15.07
2018-04-17T20:12:58.633Z,15.06
2018-04-17T20:15:26.273Z,15.01
2018-04-17T20:17:53.918Z,14.99
2018-04-17T20:20:21.491Z,14.93
2018-04-17T20:22:49.128Z,14.86
2018-04-17T20:25:16.761Z,14.81
2018-04-17T20:27:44.333Z,14.78
2018-04-17T20:30:11.931Z,14.80
2018-04-17T20:32:39.513Z,14.80
2018-04-17T20:35:07.081Z,14.81
2018-04-17T20:37:34.717Z,14.81
2018-04-17T20:40:02.302Z,14.81
2018-04-17T20:42:29.941Z,14.75
2018-04-17T20:44:57.683Z,14.72
2018-04-17T20:47:25.248Z,14.71
2018-04-17T20:49:52.845Z,14.70
2018-04-17T20:52:20.461Z,14.69
2018-04-17T20:54:48.065Z,14.67
2018-04-17T20:57:15.680Z,14.64
2018-04-17T20:59:43.256Z,14.59
2018-04-17T21:02:10.865Z,14.59
2018-04-17T21:04:38.418Z,14.59
2018-04-17T21:07:05.999Z,14.61
2018-04-17T21:09:33.642Z,14.61
2018-04-17T21:12:01.268Z,14.61
2018-04-17T21:14:28.838Z,14.64
2018-04-17T21:16:56.493Z,14.68
2018-04-17T21:19:24.177Z,14.69
2018-04-17T21:21:51.884Z,14.66
2018-04-17T21:24:19.504Z,14.63
2018-04-17T21:26:47.107Z,14.65
2018-04-17T21:29:14.754Z,14.66
2018-04-17T21:31:42.324Z,14.65
2018-04-17T21:34:09.972Z,14.64
2018-04-17T21:36:37.599Z,14.61
2018-04-17T21:39:05.978Z,14.59
2018-04-17T21:41:33.554Z,14.58
2018-04-17T21:44:01.185Z,14.59
2018-04-17T21:46:28.813Z,14.54
2018-04-17T21:48:56.380Z,14.53
2018-04-17T21:51:24.005Z,14.53
2018-04-17T21:53:51.642Z,14.56
2018-04-17T21:56:19.286Z,14.54
2018-04-17T21:58:46.949Z,14.55
2018-04-17T22:01:14.515Z,14.52
2018-04-17T22:03:42.082Z,14.51
2018-04-17T22:06:09.666Z,14.49
2018-04-17T22:08:37.234Z,14.54
2018-04-17T22:11:04.976Z,14.47
2018-04-17T22:13:32.663Z,14.48
2018-04-17T22:16:00.224Z,14.49
2018-04-17T22:18:27.804Z,14.49
2018-04-17T22:20:55.384Z,14.49
2018-04-17T22:23:23.050Z,14.40
2018-04-17T22:25:50.650Z,14.43
2018-04-17T22:28:18.270Z,14.41
2018-04-17T22:30:45.902Z,14.45
2018-04-17T22:33:13.505Z,14.45
2018-04-17T22:35:41.129Z,14.45
2018-04-17T22:38:08.776Z,14.43
2018-04-17T22:40:36.384Z,14.46
2018-04-17T22:43:03.989Z,14.49
2018-04-17T22:45:31.594Z,14.47
2018-04-17T22:47:59.252Z,14.48
2018-04-17T22:50:26.913Z,14.48
2018-04-17T22:52:54.528Z,14.44
2018-04-17T22:55:22.149Z,14.45
2018-04-17T22:57:49.812Z,14.47
2018-04-17T23:00:17.428Z,14.52
2018-04-17T23:02:44.993Z,14.49
2018-04-17T23:05:12.566Z,14.47
2018-04-17T23:07:40.201Z,14.45
2018-04-17T23:10:07.783Z,14.45
2018-04-17T23:12:35.505Z,14.44
2018-04-17T23:15:03.227Z,14.47
2018-04-17T23:17:30.909Z,14.51
2018-04-17T23:19:59.489Z,14.48
2018-04-17T23:22:27.057Z,14.49
2018-04-17T23:24:54.737Z,14.53
2018-04-17T23:27:22.300Z,14.55
2018-04-17T23:29:49.929Z,14.48
2018-04-17T23:32:17.501Z,14.48
2018-04-17T23:34:45.072Z,14.48
2018-04-17T23:37:12.717Z,14.50
2018-04-17T23:39:40.281Z,14.50
2018-04-17T23:42:07.826Z,14.48
2018-04-17T23:44:35.465Z,14.49
2018-04-17T23:47:03.094Z,14.49
2018-04-17T23:49:30.712Z,14.44
2018-04-17T23:51:58.325Z,14.45
2018-04-17T23:54:25.901Z,14.44
2018-04-17T23:56:53.480Z,14.47
2018-04-17T23:59:21.044Z,14.44
